Logan Station, North Carolina
Current Conditions -  °F | °C
As of 5:15 AM on Wednesday 22 Oct 2014 (Local Time) from KFQD Reporting Station
Clear Clear  
Wind Chill: 46°   Ceiling: Unl
Heat Index: 48°   Visibility: 10mi
Dew Point: 36°   Wind: 5mph
Humidity: 63%   Direction: 350°N
Pressure: 30.03"   Gusts: NA
Location:  35.3722°N, 82.0134°W
Report Text: KFQD 220915Z AUTO 35004KT 10SM CLR 09/02 A3003 RMK AO2 T00890021
Loading
Personal Weather Stations






























Interactive Weather Map
Tropical Storm Tracking
New forecast layout! Learn more

10-Day Weather Forecast

Advertisements
Track Severe Weather on mobile